Time;durP1;ratioP1;P1;durP2;ratioP2;P2;SDS_P1;SDS_P2;PMS_P1;PMS_P2;Temp;Humidity;BMP_temperature;BMP_pressure;BME280_temperature;BME280_humidity;BME280_pressure;Samples;Min_cycle;Max_cycle;Signal;HPM_P1;HPM_P2
2023/05/14 00:02:39;;;;;;;8.25;6.47;;;;;;;10.93;100.00;100864.28;5548199;32;34072;-70
2023/05/14 00:05:42;;;;;;;7.62;6.50;;;;;;;11.06;100.00;100854.03;5548632;32;33617;-69
2023/05/14 00:08:45;;;;;;;10.48;7.00;;;;;;;11.10;100.00;100856.22;5548219;32;34713;-69
2023/05/14 00:11:48;;;;;;;10.50;7.15;;;;;;;10.98;100.00;100854.84;5541862;32;34272;-69
2023/05/14 00:14:51;;;;;;;10.68;6.40;;;;;;;10.98;100.00;100852.19;5548260;32;33802;-69
2023/05/14 00:17:54;;;;;;;8.35;6.87;;;;;;;11.13;100.00;100852.41;5548198;32;33789;-69
2023/05/14 00:20:56;;;;;;;11.00;7.37;;;;;;;11.08;100.00;100850.25;5548422;32;33916;-69
2023/05/14 00:23:59;;;;;;;10.75;7.32;;;;;;;11.03;100.00;100849.06;5548195;32;35122;-70
2023/05/14 00:27:02;;;;;;;10.25;7.50;;;;;;;10.85;100.00;100842.00;5548160;32;33905;-69
2023/05/14 00:30:06;;;;;;;11.95;7.95;;;;;;;10.88;100.00;100848.81;5547195;32;33843;-69
2023/05/14 00:33:08;;;;;;;11.85;7.37;;;;;;;10.76;100.00;100848.25;5548263;32;35026;-69
2023/05/14 00:36:11;;;;;;;10.98;7.75;;;;;;;10.76;100.00;100840.28;5548009;32;34377;-69
2023/05/14 00:39:14;;;;;;;10.25;7.20;;;;;;;10.78;100.00;100843.63;5547821;32;33983;-69
2023/05/14 00:42:17;;;;;;;11.57;7.78;;;;;;;10.79;100.00;100839.16;5548013;32;33794;-69
2023/05/14 00:45:19;;;;;;;9.32;7.00;;;;;;;10.85;100.00;100842.00;5547919;32;33692;-69
2023/05/14 00:48:23;;;;;;;11.50;6.72;;;;;;;10.84;100.00;100839.50;5547877;32;33904;-69
2023/05/14 00:51:25;;;;;;;12.13;7.18;;;;;;;10.82;100.00;100837.00;5547782;32;34000;-69
2023/05/14 00:54:29;;;;;;;11.98;7.07;;;;;;;10.77;100.00;100833.16;5547879;32;33986;-69
2023/05/14 00:57:33;;;;;;;9.60;6.85;;;;;;;10.75;100.00;100833.31;5547863;32;33598;-69
2023/05/14 01:00:37;;;;;;;8.07;6.40;;;;;;;10.83;100.00;100829.87;5546845;32;33674;-70
2023/05/14 01:03:41;;;;;;;10.48;6.15;;;;;;;10.84;100.00;100829.69;5547593;32;34249;-67
2023/05/14 01:06:59;;;;;;;11.20;6.93;;;;;;;10.83;100.00;100825.41;5547660;32;33885;-69
2023/05/14 01:10:16;;;;;;;8.50;6.30;;;;;;;10.81;100.00;100824.72;5547887;32;34272;-70
2023/05/14 01:13:32;;;;;;;9.40;6.20;;;;;;;10.79;100.00;100817.91;5546954;32;33794;-69
2023/05/14 01:16:37;;;;;;;9.48;6.22;;;;;;;10.81;100.00;100811.44;5547640;32;33848;-70
2023/05/14 01:19:41;;;;;;;9.05;6.40;;;;;;;10.79;100.00;100805.47;5547528;32;33725;-69
2023/05/14 01:22:44;;;;;;;8.93;6.10;;;;;;;10.80;100.00;100803.63;5547499;32;34421;-69
2023/05/14 01:25:47;;;;;;;7.43;5.68;;;;;;;10.80;100.00;100804.47;5547455;32;34615;-70
2023/05/14 01:28:51;;;;;;;11.15;6.30;;;;;;;10.82;100.00;100804.31;5547458;32;34505;-69
2023/05/14 01:31:56;;;;;;;11.63;6.03;;;;;;;10.67;100.00;100793.47;5547449;32;34530;-69
2023/05/14 01:35:00;;;;;;;9.07;6.32;;;;;;;10.57;100.00;100795.41;5547484;32;33854;-69
2023/05/14 01:38:06;;;;;;;8.45;6.45;;;;;;;10.57;100.00;100786.59;5547542;32;33924;-68
2023/05/14 01:41:09;;;;;;;8.50;6.65;;;;;;;10.59;100.00;100789.94;5547278;32;33826;-70
2023/05/14 01:44:12;;;;;;;9.50;6.28;;;;;;;10.62;100.00;100779.00;5547318;32;34268;-69
2023/05/14 01:47:15;;;;;;;8.45;6.10;;;;;;;10.53;100.00;100778.12;5547167;32;33943;-69
2023/05/14 01:50:18;;;;;;;8.32;6.28;;;;;;;10.38;100.00;100772.59;5547151;32;33933;-69
2023/05/14 01:53:21;;;;;;;8.80;6.62;;;;;;;10.26;100.00;100765.87;5546939;32;33858;-69
2023/05/14 01:56:24;;;;;;;7.80;6.60;;;;;;;10.21;100.00;100762.03;5547289;32;33839;-69
2023/05/14 01:59:28;;;;;;;10.90;6.22;;;;;;;10.13;100.00;100768.06;5546882;32;33879;-68
2023/05/14 02:02:31;;;;;;;11.15;6.68;;;;;;;10.10;100.00;100757.78;5546959;32;34865;-69
2023/05/14 02:05:34;;;;;;;8.48;6.40;;;;;;;10.13;100.00;100743.38;5546799;32;34203;-70
2023/05/14 02:08:36;;;;;;;9.30;6.25;;;;;;;10.17;100.00;100735.00;5545568;32;34474;-69
2023/05/14 02:11:39;;;;;;;12.43;6.47;;;;;;;10.24;100.00;100741.34;5540233;32;33762;-69
2023/05/14 02:14:42;;;;;;;9.57;6.47;;;;;;;10.36;100.00;100745.37;5547055;32;34344;-70
2023/05/14 02:17:45;;;;;;;10.48;6.37;;;;;;;10.43;100.00;100741.13;5546578;32;33681;-69
2023/05/14 02:20:48;;;;;;;8.88;6.37;;;;;;;10.45;100.00;100735.66;5546491;32;33844;-69
2023/05/14 02:23:51;;;;;;;9.43;6.47;;;;;;;10.42;100.00;100735.97;5547084;32;34018;-70
2023/05/14 02:26:55;;;;;;;7.60;6.07;;;;;;;10.40;100.00;100733.50;5549241;32;33785;-69
2023/05/14 02:29:59;;;;;;;11.40;6.60;;;;;;;10.40;100.00;100733.50;5549076;32;34540;-69
2023/05/14 02:33:02;;;;;;;13.07;6.03;;;;;;;10.41;100.00;100737.78;5548511;32;34509;-69
2023/05/14 02:36:05;;;;;;;7.53;5.90;;;;;;;10.44;100.00;100734.00;5548911;32;34906;-69
2023/05/14 02:39:08;;;;;;;9.75;6.20;;;;;;;10.45;100.00;100733.84;5549073;32;33906;-69
2023/05/14 02:42:11;;;;;;;7.97;6.00;;;;;;;10.46;100.00;100732.84;5548982;32;34625;-69
2023/05/14 02:45:14;;;;;;;9.55;5.90;;;;;;;10.47;100.00;100725.72;5549056;32;33821;-69
2023/05/14 02:48:16;;;;;;;12.07;5.93;;;;;;;10.45;100.00;100727.72;5549257;32;34378;-69
2023/05/14 02:51:20;;;;;;;11.02;5.97;;;;;;;10.46;100.00;100726.69;5548021;32;33895;-70
2023/05/14 02:54:22;;;;;;;11.10;5.87;;;;;;;10.51;100.00;100734.19;5548898;32;33863;-69
2023/05/14 02:57:25;;;;;;;8.02;5.80;;;;;;;10.49;100.00;100725.56;5548104;32;33576;-69
2023/05/14 03:00:28;;;;;;;8.60;5.65;;;;;;;10.48;100.00;100724.72;5548868;32;33725;-69
2023/05/14 03:03:31;;;;;;;7.62;5.60;;;;;;;10.49;100.00;100736.19;5548917;32;33793;-69
2023/05/14 03:06:34;;;;;;;7.28;5.70;;;;;;;10.49;100.00;100728.22;5548715;32;34043;-69
2023/05/14 03:09:37;;;;;;;7.90;6.10;;;;;;;10.54;100.00;100725.91;5547064;32;33848;-70
2023/05/14 03:12:40;;;;;;;9.02;5.75;;;;;;;10.52;100.00;100723.41;5544418;32;34307;-70
2023/05/14 03:15:43;;;;;;;10.95;5.87;;;;;;;10.53;100.00;100717.12;5548928;32;34041;-69
2023/05/14 03:18:46;;;;;;;7.50;5.53;;;;;;;10.54;100.00;100712.66;5548663;32;34631;-69
2023/05/14 03:21:49;;;;;;;8.18;5.78;;;;;;;10.53;100.00;100717.12;5547745;32;34489;-69
2023/05/14 03:24:51;;;;;;;11.27;6.12;;;;;;;10.56;100.00;100711.50;5548787;32;33650;-69
2023/05/14 03:27:54;;;;;;;9.80;5.68;;;;;;;10.61;100.00;100713.66;5549100;32;33810;-69
2023/05/14 03:30:57;;;;;;;6.75;5.57;;;;;;;10.62;100.00;100721.47;5548667;32;33777;-69
2023/05/14 03:34:00;;;;;;;8.77;5.30;;;;;;;10.74;100.00;100724.69;5547853;32;33860;-70
2023/05/14 03:37:02;;;;;;;6.65;4.97;;;;;;;10.78;100.00;100726.84;5548155;32;33913;-70
2023/05/14 03:40:06;;;;;;;9.55;5.53;;;;;;;10.80;100.00;100711.59;5548516;32;34386;-69
2023/05/14 03:43:10;;;;;;;8.15;5.20;;;;;;;10.87;100.00;100719.75;5548556;32;33958;-70
2023/05/14 03:46:14;;;;;;;9.25;5.47;;;;;;;10.95;100.00;100719.75;5548609;32;33866;-69
2023/05/14 03:49:16;;;;;;;8.35;5.32;;;;;;;10.99;100.00;100720.28;5548460;32;34501;-69
2023/05/14 03:52:19;;;;;;;8.55;5.60;;;;;;;11.07;100.00;100725.59;5548433;32;33776;-69
2023/05/14 03:55:22;;;;;;;7.93;5.18;;;;;;;11.06;100.00;100730.06;5548447;32;33803;-69
2023/05/14 03:58:25;;;;;;;8.23;5.00;;;;;;;11.05;100.00;100731.06;5547711;32;33580;-70
2023/05/14 04:01:27;;;;;;;9.57;5.32;;;;;;;11.09;100.00;100720.94;5548289;32;34145;-69
2023/05/14 04:04:32;;;;;;;8.80;5.30;;;;;;;10.97;100.00;100704.50;5548384;32;34495;-69
2023/05/14 04:07:36;;;;;;;8.07;5.32;;;;;;;11.04;100.00;100715.28;5534795;32;34162;-69
2023/05/14 04:10:39;;;;;;;7.78;4.95;;;;;;;11.12;100.00;100717.97;5541794;32;33663;-70
2023/05/14 04:13:42;;;;;;;7.20;4.90;;;;;;;11.01;100.00;100711.16;5548274;32;34878;-70
2023/05/14 04:16:45;;;;;;;8.85;4.90;;;;;;;11.11;100.00;100722.47;5548237;32;33844;-70
2023/05/14 04:19:47;;;;;;;6.72;4.70;;;;;;;11.12;100.00;100717.97;5548607;32;33572;-70
2023/05/14 04:22:50;;;;;;;6.45;4.12;;;;;;;11.20;100.00;100716.16;5548567;32;33755;-69
2023/05/14 04:25:53;;;;;;;6.65;4.37;;;;;;;11.09;100.00;100703.19;5548185;32;34875;-69
2023/05/14 04:28:57;;;;;;;11.18;4.30;;;;;;;11.16;100.00;100701.56;5548535;32;33606;-69
2023/05/14 04:31:59;;;;;;;6.18;4.70;;;;;;;11.21;100.00;100701.91;5548085;32;33882;-69
2023/05/14 04:35:03;;;;;;;8.43;4.55;;;;;;;11.37;100.00;100697.59;5548062;32;34323;-70
2023/05/14 04:38:06;;;;;;;7.65;4.78;;;;;;;11.33;100.00;100705.88;5533330;32;34274;-69
2023/05/14 04:41:09;;;;;;;7.03;4.05;;;;;;;11.35;100.00;100692.44;5528553;32;33919;-69
2023/05/14 04:44:11;;;;;;;5.75;4.07;;;;;;;11.47;100.00;100700.94;5528909;32;33811;-69
2023/05/14 04:47:14;;;;;;;6.25;4.05;;;;;;;11.38;100.00;100702.72;5526981;32;33690;-69
2023/05/14 04:50:17;;;;;;;7.40;3.75;;;;;;;11.38;100.00;100704.56;5528604;32;34594;-69
2023/05/14 04:53:20;;;;;;;5.25;3.92;;;;;;;11.36;100.00;100702.09;5528550;32;34936;-69
2023/05/14 04:56:22;;;;;;;6.75;3.85;;;;;;;11.32;100.00;100701.59;5528649;32;33976;-69
2023/05/14 04:59:25;;;;;;;6.68;4.10;;;;;;;11.34;100.00;100686.31;5527834;32;33651;-69
2023/05/14 05:02:27;;;;;;;7.07;4.15;;;;;;;11.37;100.00;100695.78;5528751;32;33854;-69
2023/05/14 05:05:30;;;;;;;6.15;3.85;;;;;;;11.39;100.00;100701.75;5528875;32;34089;-69
2023/05/14 05:08:33;;;;;;;5.18;4.00;;;;;;;11.47;100.00;100690.31;5528345;32;34087;-71
2023/05/14 05:11:36;;;;;;;20.98;4.53;;;;;;;11.54;100.00;100701.91;5528397;32;34364;-69
2023/05/14 05:14:39;;;;;;;5.18;3.97;;;;;;;11.65;100.00;100704.25;5528245;32;33598;-69
2023/05/14 05:17:42;;;;;;;8.30;3.72;;;;;;;11.53;100.00;100695.75;5528260;32;33708;-69
2023/05/14 05:20:44;;;;;;;5.45;3.97;;;;;;;11.47;100.00;100693.78;5530348;32;33969;-69
2023/05/14 05:23:47;;;;;;;8.63;3.97;;;;;;;11.41;100.00;100686.47;5538577;32;33672;-69
2023/05/14 05:26:50;;;;;;;6.50;3.80;;;;;;;11.44;100.00;100686.12;5547629;32;33724;-69
2023/05/14 05:29:53;;;;;;;9.30;3.92;;;;;;;11.52;100.00;100674.69;5547786;32;34562;-69
2023/05/14 05:32:56;;;;;;;7.20;4.07;;;;;;;11.42;100.00;100685.50;5547461;32;33905;-69
2023/05/14 05:35:59;;;;;;;6.53;3.97;;;;;;;11.53;100.00;100687.78;5537708;32;33869;-69
2023/05/14 05:39:02;;;;;;;6.62;4.47;;;;;;;11.61;100.00;100687.81;5527953;32;33820;-69
2023/05/14 05:42:05;;;;;;;5.18;3.60;;;;;;;11.52;100.00;100691.44;5527904;32;33789;-69
2023/05/14 05:45:08;;;;;;;6.50;4.22;;;;;;;11.61;100.00;100682.50;5527900;32;33806;-69
2023/05/14 05:48:10;;;;;;;7.10;4.20;;;;;;;11.55;100.00;100679.66;5527812;32;33703;-69
2023/05/14 05:51:13;;;;;;;6.28;4.50;;;;;;;11.55;100.00;100682.31;5527549;32;33738;-69
2023/05/14 05:54:16;;;;;;;9.90;4.50;;;;;;;11.50;100.00;100685.47;5526758;32;33979;-69
2023/05/14 05:57:18;;;;;;;8.30;4.60;;;;;;;11.59;100.00;100683.66;5529278;32;34157;-68
2023/05/14 06:00:22;;;;;;;8.82;4.57;;;;;;;11.79;100.00;100671.72;5529940;32;32111;-69
2023/05/14 06:03:27;;;;;;;6.97;4.60;;;;;;;11.82;100.00;100678.50;5528992;32;33840;-69
2023/05/14 06:06:31;;;;;;;9.85;4.25;;;;;;;11.89;100.00;100684.81;5530017;32;33974;-70
2023/05/14 06:09:34;;;;;;;8.25;4.40;;;;;;;11.68;100.00;100688.78;5529713;32;33946;-69
2023/05/14 06:12:36;;;;;;;9.73;4.37;;;;;;;11.76;100.00;100685.34;5529775;32;33969;-69
2023/05/14 06:15:39;;;;;;;7.75;4.20;;;;;;;11.70;100.00;100696.59;5545142;32;33924;-68
2023/05/14 06:18:42;;;;;;;5.57;4.32;;;;;;;11.60;100.00;100691.47;5549165;32;34160;-69
2023/05/14 06:21:44;;;;;;;7.75;4.50;;;;;;;11.69;100.00;100695.78;5549315;32;33575;-68
2023/05/14 06:24:47;;;;;;;7.18;4.50;;;;;;;11.80;100.00;100689.31;5549071;32;33647;-69
2023/05/14 06:27:50;;;;;;;6.00;4.40;;;;;;;11.78;100.00;100683.31;5549074;32;34555;-69
2023/05/14 06:30:53;;;;;;;6.28;4.57;;;;;;;11.68;100.00;100688.78;5549105;32;34459;-69
2023/05/14 06:33:56;;;;;;;6.60;4.55;;;;;;;11.66;100.00;100701.44;5545202;32;33820;-70
2023/05/14 06:36:59;;;;;;;8.30;4.68;;;;;;;11.48;100.00;100695.44;5548848;32;33928;-71
2023/05/14 06:40:02;;;;;;;7.03;4.37;;;;;;;11.41;100.00;100691.78;5536869;32;33820;-72
2023/05/14 06:43:05;;;;;;;9.75;4.50;;;;;;;11.43;100.00;100695.09;5529601;32;34567;-68
2023/05/14 06:46:08;;;;;;;9.85;4.35;;;;;;;11.41;100.00;100694.44;5529697;32;33700;-73
2023/05/14 06:49:10;;;;;;;6.85;4.90;;;;;;;11.45;100.00;100690.47;5528574;32;34312;-73
2023/05/14 06:52:14;;;;;;;9.18;5.53;;;;;;;11.52;100.00;100680.81;5528933;32;34014;-74
2023/05/14 06:55:16;;;;;;;11.85;5.10;;;;;;;11.55;100.00;100684.97;5529416;32;34318;-75
2023/05/14 06:58:19;;;;;;;8.07;4.95;;;;;;;11.63;100.00;100672.50;5529536;32;34576;-74
2023/05/14 07:01:21;;;;;;;11.12;5.10;;;;;;;11.59;100.00;100676.50;5529490;32;33725;-75
2023/05/14 07:04:25;;;;;;;6.93;4.85;;;;;;;11.60;100.00;100669.38;5529736;32;33601;-75
2023/05/14 07:07:27;;;;;;;8.50;5.32;;;;;;;11.69;100.00;100660.37;5529570;32;33656;-75
2023/05/14 07:10:30;;;;;;;7.53;4.90;;;;;;;11.81;100.00;100658.25;5528524;32;33928;-74
2023/05/14 07:13:33;;;;;;;8.18;5.45;;;;;;;11.83;100.00;100657.06;5528529;32;34723;-76
2023/05/14 07:16:36;;;;;;;9.77;5.80;;;;;;;11.91;100.00;100650.94;5528137;32;34461;-74
2023/05/14 07:19:38;;;;;;;10.05;5.03;;;;;;;12.11;100.00;100647.69;5529464;32;34729;-74
2023/05/14 07:22:42;;;;;;;6.87;4.90;;;;;;;12.38;100.00;100654.44;5529111;32;33982;-72
2023/05/14 07:25:44;;;;;;;8.75;5.20;;;;;;;12.68;100.00;100646.63;5529209;32;33917;-74
2023/05/14 07:28:47;;;;;;;7.82;4.80;;;;;;;12.88;100.00;100648.66;5529206;32;34568;-73
2023/05/14 07:31:50;;;;;;;6.15;4.55;;;;;;;12.94;100.00;100649.78;5529389;32;33747;-73
2023/05/14 07:34:53;;;;;;;7.20;4.53;;;;;;;13.24;100.00;100637.47;5529010;32;34085;-73
2023/05/14 07:37:56;;;;;;;7.65;4.55;;;;;;;13.48;100.00;100632.75;5529064;32;33820;-72
2023/05/14 07:40:59;;;;;;;7.60;4.55;;;;;;;13.52;100.00;100633.22;5528434;32;34593;-70
2023/05/14 07:44:02;;;;;;;9.25;4.60;;;;;;;13.83;100.00;100631.25;5528212;32;33836;-71
2023/05/14 07:47:06;;;;;;;8.50;4.55;;;;;;;14.05;100.00;100639.34;5542405;32;33671;-73
2023/05/14 07:50:09;;;;;;;12.25;4.95;;;;;;;13.97;100.00;100640.28;5538182;32;33519;-72
2023/05/14 07:53:12;;;;;;;9.85;4.07;;;;;;;14.02;100.00;100632.56;5538775;32;33873;-74
2023/05/14 07:56:15;;;;;;;6.35;4.75;;;;;;;13.74;100.00;100624.34;5527839;32;33962;-73
2023/05/14 07:59:19;;;;;;;6.10;4.93;;;;;;;13.99;100.00;100630.22;5528841;32;34548;-72
2023/05/14 08:02:21;;;;;;;6.03;4.43;;;;;;;14.01;100.00;100611.38;5528218;32;34561;-71
2023/05/14 08:05:25;;;;;;;7.10;4.25;;;;;;;14.21;100.00;100612.47;5522840;32;34353;-71
2023/05/14 08:08:28;;;;;;;7.68;4.90;;;;;;;14.45;100.00;100603.37;5528909;32;34827;-73
2023/05/14 08:11:31;;;;;;;6.93;4.35;;;;;;;14.16;100.00;100607.72;5528465;32;34005;-72
2023/05/14 08:14:33;;;;;;;8.73;4.40;;;;;;;14.15;100.00;100602.53;5528897;32;33695;-71
2023/05/14 08:17:36;;;;;;;6.25;4.20;;;;;;;14.23;100.00;100597.94;5528879;32;33890;-73
2023/05/14 08:20:39;;;;;;;9.02;4.80;;;;;;;14.01;100.00;100590.03;5528783;32;34430;-73
2023/05/14 08:23:42;;;;;;;7.45;4.80;;;;;;;13.81;100.00;100590.59;5527213;32;34504;-72
2023/05/14 08:26:45;;;;;;;7.40;4.78;;;;;;;13.68;100.00;100585.09;5528938;32;34146;-73
2023/05/14 08:29:51;;;;;;;8.07;4.57;;;;;;;13.51;100.00;100588.09;5528667;32;33958;-72
2023/05/14 08:32:54;;;;;;;9.38;5.05;;;;;;;13.26;100.00;100583.00;5528536;32;33716;-76
2023/05/14 08:35:59;;;;;;;10.73;5.07;;;;;;;13.11;100.00;100570.62;5528495;32;34593;-77
2023/05/14 08:39:02;;;;;;;6.22;4.32;;;;;;;13.15;100.00;100572.78;5528697;32;33691;-75
2023/05/14 08:42:06;;;;;;;10.68;5.20;;;;;;;12.83;100.00;100576.47;5527554;32;35076;-77
2023/05/14 08:45:12;;;;;;;12.60;5.80;;;;;;;12.64;100.00;100576.94;5528484;32;34473;-76
2023/05/14 08:48:18;;;;;;;7.60;5.28;;;;;;;12.87;100.00;100566.31;5528492;32;33990;-75
2023/05/14 08:51:21;;;;;;;7.15;5.55;;;;;;;12.82;100.00;100555.37;5528470;32;35290;-76
2023/05/14 08:54:25;;;;;;;8.18;5.82;;;;;;;12.86;100.00;100554.84;5527819;32;33878;-76
2023/05/14 08:57:30;;;;;;;10.88;5.25;;;;;;;12.96;100.00;100546.59;5528400;32;34529;-76
2023/05/14 09:00:33;;;;;;;9.15;5.35;;;;;;;13.01;100.00;100550.38;5528299;32;34755;-77
2023/05/14 09:03:36;;;;;;;7.18;5.22;;;;;;;12.87;100.00;100545.84;5528497;32;33940;-77
2023/05/14 09:06:40;;;;;;;9.00;5.65;;;;;;;12.85;100.00;100553.16;5538522;32;33794;-76
2023/05/14 09:09:44;;;;;;;9.25;4.95;;;;;;;12.89;100.00;100549.13;5547449;32;34583;-75
2023/05/14 09:12:47;;;;;;;9.43;5.72;;;;;;;12.77;100.00;100547.91;5546606;32;34317;-77
2023/05/14 09:15:50;;;;;;;9.43;5.60;;;;;;;12.92;100.00;100550.62;5547629;32;33807;-77
2023/05/14 09:18:53;;;;;;;7.30;5.10;;;;;;;12.99;100.00;100544.41;5547555;32;33786;-75
2023/05/14 09:21:58;;;;;;;9.02;5.43;;;;;;;13.01;100.00;100544.22;5547522;32;34541;-77
2023/05/14 09:25:05;;;;;;;11.60;6.20;;;;;;;12.90;100.00;100541.97;5547496;32;33631;-75
2023/05/14 09:28:08;;;;;;;7.50;5.43;;;;;;;12.99;100.00;100538.25;5547497;32;33824;-77
2023/05/14 09:31:12;;;;;;;9.98;5.75;;;;;;;12.99;100.00;100535.56;5546620;32;33895;-77
2023/05/14 09:34:24;;;;;;;8.85;5.60;;;;;;;12.82;100.00;100534.06;5546755;32;34413;-77
2023/05/14 09:37:27;;;;;;;7.35;5.18;;;;;;;13.01;100.00;100525.59;5547310;32;34561;-77
2023/05/14 09:40:30;;;;;;;9.80;5.62;;;;;;;12.97;100.00;100525.09;5547198;32;35028;-77
2023/05/14 09:43:32;;;;;;;8.82;5.70;;;;;;;13.03;100.00;100529.72;5546451;32;34492;-77
2023/05/14 09:46:35;;;;;;;8.95;5.82;;;;;;;13.17;100.00;100522.78;5547077;32;33872;-76
2023/05/14 09:49:38;;;;;;;8.38;6.30;;;;;;;13.19;100.00;100523.44;5547113;32;33946;-78
2023/05/14 09:52:41;;;;;;;12.02;6.25;;;;;;;13.04;100.00;100515.37;5546369;32;33719;-76
2023/05/14 09:55:44;;;;;;;10.38;5.93;;;;;;;13.06;100.00;100510.72;5547106;32;33704;-76
2023/05/14 09:58:47;;;;;;;10.82;6.32;;;;;;;12.82;100.00;100507.44;5544844;32;34352;-76
2023/05/14 10:01:51;;;;;;;8.43;6.00;;;;;;;12.75;100.00;100506.50;5545822;32;34462;-77
2023/05/14 10:04:57;;;;;;;10.95;5.72;;;;;;;12.78;100.00;100509.59;5540777;32;33757;-77
2023/05/14 10:08:04;;;;;;;11.35;6.22;;;;;;;12.76;100.00;100502.81;5527423;32;34829;-77
2023/05/14 10:11:13;;;;;;;10.43;6.55;;;;;;;12.75;100.00;100495.84;5527319;32;34445;-79
2023/05/14 10:14:52;;;;;;;12.55;6.75;;;;;;;12.79;100.00;100487.31;5526027;32;34683;-77
2023/05/14 10:18:02;;;;;;;10.27;6.65;;;;;;;12.81;100.00;100464.00;5493281;32;33104;-76
2023/05/14 10:21:08;;;;;;;15.27;6.97;;;;;;;12.84;100.00;100452.16;5522710;32;33981;-77
2023/05/14 10:24:13;;;;;;;9.65;6.30;;;;;;;12.67;100.00;100446.19;5525278;32;34461;-75
2023/05/14 10:27:16;;;;;;;9.65;6.50;;;;;;;12.50;100.00;100432.16;5524866;32;34224;-76
2023/05/14 10:30:22;;;;;;;10.13;6.82;;;;;;;12.49;100.00;100422.53;5524719;32;34793;-74
2023/05/14 10:33:33;;;;;;;12.45;6.70;;;;;;;12.56;100.00;100412.00;5524693;32;33642;-75
2023/05/14 10:36:42;;;;;;;9.38;7.22;;;;;;;12.77;100.00;100406.00;5524748;32;34586;-75
2023/05/14 10:40:05;;;;;;;10.70;7.05;;;;;;;12.67;100.00;100416.06;5524570;32;34824;-73
2023/05/14 10:43:10;;;;;;;8.40;6.62;;;;;;;12.45;100.00;100439.03;5524513;32;33704;-77
2023/05/14 10:46:13;;;;;;;9.00;6.82;;;;;;;12.34;100.00;100431.47;5526226;32;35391;-76
2023/05/14 10:49:17;;;;;;;14.25;7.07;;;;;;;12.34;100.00;100436.81;5527323;32;34927;-76
2023/05/14 10:52:41;;;;;;;9.82;7.40;;;;;;;12.43;100.00;100435.72;5544819;32;33605;-75
2023/05/14 10:55:44;;;;;;;10.25;6.62;;;;;;;12.51;100.00;100431.16;5547801;32;34253;-76
2023/05/14 10:58:48;;;;;;;10.00;7.10;;;;;;;12.57;100.00;100425.12;5548903;32;33609;-75
2023/05/14 11:01:51;;;;;;;10.60;7.30;;;;;;;12.63;100.00;100421.72;5549199;32;33957;-76
2023/05/14 11:05:09;;;;;;;8.95;6.85;;;;;;;12.66;100.00;100423.22;5548673;32;33902;-77
2023/05/14 11:08:13;;;;;;;8.88;6.57;;;;;;;12.63;100.00;100420.94;5548808;32;33874;-77
2023/05/14 11:11:17;;;;;;;9.73;6.68;;;;;;;12.69;100.00;100425.50;5547835;32;33603;-75
2023/05/14 11:14:21;;;;;;;9.35;6.78;;;;;;;12.67;100.00;100430.19;5548642;32;34485;-76
2023/05/14 11:17:28;;;;;;;11.07;7.60;;;;;;;12.55;100.00;100429.78;5548487;32;33870;-76
2023/05/14 11:20:31;;;;;;;11.82;7.57;;;;;;;12.73;100.00;100415.34;5548627;32;33714;-77
2023/05/14 11:23:34;;;;;;;11.27;7.28;;;;;;;12.44;100.00;100408.91;5547870;32;34534;-75
2023/05/14 11:26:37;;;;;;;12.30;7.68;;;;;;;12.36;100.00;100394.88;5547722;32;33821;-76
2023/05/14 11:29:44;;;;;;;12.45;8.07;;;;;;;12.42;100.00;100399.47;5548477;32;34566;-76
2023/05/14 11:32:48;;;;;;;13.30;8.48;;;;;;;12.40;100.00;100402.31;5547649;32;33690;-77
2023/05/14 11:35:51;;;;;;;11.27;8.32;;;;;;;12.41;100.00;100403.97;5548579;32;33627;-75
2023/05/14 11:38:54;;;;;;;14.38;8.45;;;;;;;12.41;100.00;100403.97;5548349;32;33793;-76
2023/05/14 11:41:57;;;;;;;13.57;8.82;;;;;;;12.43;100.00;100396.66;5548670;32;34920;-76
2023/05/14 11:45:00;;;;;;;14.10;8.70;;;;;;;12.52;100.00;100395.56;5548344;32;34761;-75
2023/05/14 11:48:10;;;;;;;18.05;9.88;;;;;;;12.53;100.00;100396.41;5548372;32;34022;-76
2023/05/14 11:51:13;;;;;;;19.98;9.43;;;;;;;12.56;100.00;100388.03;5548015;32;34427;-75
2023/05/14 11:54:16;;;;;;;11.50;7.70;;;;;;;12.47;100.00;100397.09;5548481;32;34525;-73
2023/05/14 11:57:20;;;;;;;11.43;7.68;;;;;;;12.44;100.00;100400.94;5543110;32;34348;-74
2023/05/14 12:00:23;;;;;;;12.75;7.70;;;;;;;12.41;100.00;100392.50;5532141;32;33552;-76
2023/05/14 12:03:29;;;;;;;17.05;7.50;;;;;;;12.36;100.00;100385.06;5528899;32;34484;-75
2023/05/14 12:06:32;;;;;;;9.73;7.05;;;;;;;12.28;100.00;100384.31;5528565;32;33910;-74
2023/05/14 12:09:40;;;;;;;14.68;7.68;;;;;;;12.32;100.00;100370.47;5527912;32;33283;-73
2023/05/14 12:12:47;;;;;;;11.30;7.37;;;;;;;12.16;100.00;100365.25;5529565;32;33669;-74
2023/05/14 12:15:56;;;;;;;10.45;7.50;;;;;;;12.20;100.00;100354.09;5528081;32;34317;-74
2023/05/14 12:19:00;;;;;;;11.68;6.80;;;;;;;11.99;100.00;100355.78;5528780;32;33783;-77
2023/05/14 12:22:04;;;;;;;19.17;7.70;;;;;;;11.99;100.00;100345.97;5528748;32;33837;-75
2023/05/14 12:25:14;;;;;;;13.45;7.40;;;;;;;11.84;100.00;100349.56;5527961;32;32301;-76
2023/05/14 12:28:18;;;;;;;11.00;7.82;;;;;;;11.85;100.00;100341.41;5528976;32;33440;-75
2023/05/14 12:31:32;;;;;;;12.32;7.00;;;;;;;11.84;100.00;100333.59;5539156;32;34488;-74
2023/05/14 12:34:36;;;;;;;11.48;7.45;;;;;;;11.80;100.00;100333.16;5547978;32;33886;-74
2023/05/14 12:37:41;;;;;;;9.50;7.45;;;;;;;11.81;100.00;100339.28;5548219;32;33930;-74
2023/05/14 12:40:44;;;;;;;16.83;8.80;;;;;;;11.70;100.00;100329.84;5547980;32;34474;-74
2023/05/14 12:43:48;;;;;;;14.93;8.25;;;;;;;11.72;100.00;100335.81;5547922;32;33756;-73
2023/05/14 12:46:51;;;;;;;14.45;8.25;;;;;;;11.73;100.00;100343.66;5547664;32;33921;-71
2023/05/14 12:49:53;;;;;;;13.50;8.18;;;;;;;11.72;100.00;100326.03;5546902;32;33767;-71
2023/05/14 12:52:56;;;;;;;14.55;8.60;;;;;;;11.67;100.00;100336.34;5548071;32;34913;-71
2023/05/14 12:55:59;;;;;;;11.38;8.00;;;;;;;11.70;100.00;100327.19;5547021;32;34450;-71
2023/05/14 12:59:01;;;;;;;15.93;8.77;;;;;;;11.82;100.00;100330.28;5547811;32;33736;-70
2023/05/14 13:02:04;;;;;;;20.67;8.35;;;;;;;11.82;100.00;100317.84;5548042;32;34108;-70
2023/05/14 13:05:07;;;;;;;13.20;8.63;;;;;;;11.80;100.00;100303.91;5547534;32;35119;-69
2023/05/14 13:08:10;;;;;;;20.77;8.68;;;;;;;11.78;100.00;100305.91;5528451;32;33825;-69
2023/05/14 13:11:12;;;;;;;19.35;8.77;;;;;;;11.72;100.00;100296.81;5528403;32;34679;-69
2023/05/14 13:14:15;;;;;;;19.87;9.00;;;;;;;11.72;100.00;100286.16;5528073;32;33700;-69
2023/05/14 13:17:20;;;;;;;19.85;8.60;;;;;;;11.77;100.00;100297.09;5528035;32;33739;-68
2023/05/14 13:20:24;;;;;;;17.30;9.60;;;;;;;11.81;100.00;100294.94;5528441;32;34262;-68
2023/05/14 13:23:27;;;;;;;19.98;8.73;;;;;;;11.78;100.00;100284.63;5527972;32;35763;-68
2023/05/14 13:26:29;;;;;;;24.65;9.38;;;;;;;11.80;100.00;100284.47;5528025;32;34435;-69
2023/05/14 13:29:34;;;;;;;18.27;9.27;;;;;;;11.71;100.00;100273.84;5527663;32;34447;-68
2023/05/14 13:32:36;;;;;;;15.68;9.00;;;;;;;11.77;100.00;100275.00;5528265;32;34470;-68
2023/05/14 13:35:41;;;;;;;17.23;9.02;;;;;;;11.72;100.00;100264.91;5528117;32;34345;-68
2023/05/14 13:38:47;;;;;;;17.37;7.93;;;;;;;11.87;100.00;100259.66;5528064;32;33951;-70
2023/05/14 13:41:50;;;;;;;13.15;8.38;;;;;;;11.86;100.00;100252.66;5528436;32;33544;-68
2023/05/14 13:44:52;;;;;;;15.85;8.65;;;;;;;11.89;100.00;100243.53;5527849;32;33894;-69
2023/05/14 13:47:55;;;;;;;24.85;8.65;;;;;;;11.92;100.00;100232.53;5527959;32;34563;-70
2023/05/14 13:50:58;;;;;;;13.52;8.70;;;;;;;11.92;100.00;100240.50;5527260;32;34057;-70
2023/05/14 13:54:01;;;;;;;14.57;8.07;;;;;;;11.81;100.00;100233.81;5528006;32;34428;-69
2023/05/14 13:57:04;;;;;;;19.40;7.97;;;;;;;11.83;100.00;100229.12;5527545;32;34555;-70
2023/05/14 14:00:08;;;;;;;16.37;8.77;;;;;;;11.84;100.00;100230.78;5527681;32;33964;-70
2023/05/14 14:03:11;;;;;;;32.60;9.75;;;;;;;11.79;100.00;100225.16;5527617;32;34371;-68